sensor_id;sensor_type;location;lat;lon;timestamp;temperature;humidity
76172;DHT22;64929;51.178;4.138;2022-11-20T00:00:10;5.90;75.00
76172;DHT22;64929;51.178;4.138;2022-11-20T00:02:35;5.80;75.00
76172;DHT22;64929;51.178;4.138;2022-11-20T00:05:01;5.90;73.10
76172;DHT22;64929;51.178;4.138;2022-11-20T00:07:26;5.70;72.40
76172;DHT22;64929;51.178;4.138;2022-11-20T00:09:52;5.90;74.00
76172;DHT22;64929;51.178;4.138;2022-11-20T00:12:18;5.90;74.70
76172;DHT22;64929;51.178;4.138;2022-11-20T00:14:43;5.90;76.20
76172;DHT22;64929;51.178;4.138;2022-11-20T00:17:09;6.00;75.40
76172;DHT22;64929;51.178;4.138;2022-11-20T00:19:35;5.90;75.10
76172;DHT22;64929;51.178;4.138;2022-11-20T00:22:00;5.80;75.30
76172;DHT22;64929;51.178;4.138;2022-11-20T00:24:26;5.70;76.20
76172;DHT22;64929;51.178;4.138;2022-11-20T00:26:52;5.60;76.20
76172;DHT22;64929;51.178;4.138;2022-11-20T00:29:17;5.60;77.00
76172;DHT22;64929;51.178;4.138;2022-11-20T00:31:43;5.80;76.30
76172;DHT22;64929;51.178;4.138;2022-11-20T00:34:09;5.80;76.60
76172;DHT22;64929;51.178;4.138;2022-11-20T00:36:35;5.80;76.50
76172;DHT22;64929;51.178;4.138;2022-11-20T00:39:01;5.90;76.10
76172;DHT22;64929;51.178;4.138;2022-11-20T00:41:28;5.90;76.20
76172;DHT22;64929;51.178;4.138;2022-11-20T00:43:55;6.00;74.70
76172;DHT22;64929;51.178;4.138;2022-11-20T00:46:23;5.90;76.00
76172;DHT22;64929;51.178;4.138;2022-11-20T00:48:49;5.90;74.80
76172;DHT22;64929;51.178;4.138;2022-11-20T00:51:20;5.80;75.30
76172;DHT22;64929;51.178;4.138;2022-11-20T00:53:46;5.60;76.90
76172;DHT22;64929;51.178;4.138;2022-11-20T00:56:17;5.70;75.90
76172;DHT22;64929;51.178;4.138;2022-11-20T00:58:44;5.90;75.90
76172;DHT22;64929;51.178;4.138;2022-11-20T01:01:15;6.00;76.20
76172;DHT22;64929;51.178;4.138;2022-11-20T01:03:46;5.90;76.10
76172;DHT22;64929;51.178;4.138;2022-11-20T01:06:13;5.90;75.70
76172;DHT22;64929;51.178;4.138;2022-11-20T01:08:40;5.80;74.90
76172;DHT22;64929;51.178;4.138;2022-11-20T01:11:08;5.90;73.30
76172;DHT22;64929;51.178;4.138;2022-11-20T01:13:35;5.80;74.30
76172;DHT22;64929;51.178;4.138;2022-11-20T01:18:30;5.80;75.50
76172;DHT22;64929;51.178;4.138;2022-11-20T01:20:59;6.00;72.70
76172;DHT22;64929;51.178;4.138;2022-11-20T01:23:25;6.00;74.90
76172;DHT22;64929;51.178;4.138;2022-11-20T01:25:51;5.50;75.50
76172;DHT22;64929;51.178;4.138;2022-11-20T01:28:16;5.30;77.80
76172;DHT22;64929;51.178;4.138;2022-11-20T01:30:42;5.40;77.50
76172;DHT22;64929;51.178;4.138;2022-11-20T01:33:07;5.50;77.00
76172;DHT22;64929;51.178;4.138;2022-11-20T01:35:33;5.50;76.40
76172;DHT22;64929;51.178;4.138;2022-11-20T01:37:59;5.40;77.20
76172;DHT22;64929;51.178;4.138;2022-11-20T01:40:24;5.70;76.70
76172;DHT22;64929;51.178;4.138;2022-11-20T01:43:12;5.80;74.80
76172;DHT22;64929;51.178;4.138;2022-11-20T01:45:58;5.90;75.70
76172;DHT22;64929;51.178;4.138;2022-11-20T01:48:26;5.70;73.90
76172;DHT22;64929;51.178;4.138;2022-11-20T01:50:54;5.80;74.10
76172;DHT22;64929;51.178;4.138;2022-11-20T01:53:24;5.50;77.40
76172;DHT22;64929;51.178;4.138;2022-11-20T01:55:53;5.60;75.00
76172;DHT22;64929;51.178;4.138;2022-11-20T01:58:26;5.60;75.90
76172;DHT22;64929;51.178;4.138;2022-11-20T02:00:53;5.50;77.40
76172;DHT22;64929;51.178;4.138;2022-11-20T02:03:19;5.30;77.40
76172;DHT22;64929;51.178;4.138;2022-11-20T02:06:01;5.10;78.70
76172;DHT22;64929;51.178;4.138;2022-11-20T02:08:29;5.30;76.70
76172;DHT22;64929;51.178;4.138;2022-11-20T02:10:55;5.60;76.50
76172;DHT22;64929;51.178;4.138;2022-11-20T02:13:21;5.50;76.80
76172;DHT22;64929;51.178;4.138;2022-11-20T02:16:10;5.60;75.70
76172;DHT22;64929;51.178;4.138;2022-11-20T02:18:36;5.40;76.80
76172;DHT22;64929;51.178;4.138;2022-11-20T02:21:08;5.50;76.40
76172;DHT22;64929;51.178;4.138;2022-11-20T02:26:20;5.50;77.80
76172;DHT22;64929;51.178;4.138;2022-11-20T02:28:47;5.50;77.10
76172;DHT22;64929;51.178;4.138;2022-11-20T02:31:13;5.40;76.80
76172;DHT22;64929;51.178;4.138;2022-11-20T02:33:38;5.60;76.10
76172;DHT22;64929;51.178;4.138;2022-11-20T02:36:04;5.60;75.20
76172;DHT22;64929;51.178;4.138;2022-11-20T02:38:30;5.70;75.10
76172;DHT22;64929;51.178;4.138;2022-11-20T02:40:56;5.80;75.90
76172;DHT22;64929;51.178;4.138;2022-11-20T02:43:22;5.60;76.40
76172;DHT22;64929;51.178;4.138;2022-11-20T02:45:48;5.50;77.00
76172;DHT22;64929;51.178;4.138;2022-11-20T02:48:13;5.60;76.80
76172;DHT22;64929;51.178;4.138;2022-11-20T02:50:39;5.60;77.30
76172;DHT22;64929;51.178;4.138;2022-11-20T02:53:06;5.60;77.00
76172;DHT22;64929;51.178;4.138;2022-11-20T02:55:32;5.40;77.70
76172;DHT22;64929;51.178;4.138;2022-11-20T02:57:57;5.50;77.40
76172;DHT22;64929;51.178;4.138;2022-11-20T03:00:23;5.50;77.50
76172;DHT22;64929;51.178;4.138;2022-11-20T03:02:49;5.40;77.20
76172;DHT22;64929;51.178;4.138;2022-11-20T03:05:15;5.50;78.30
76172;DHT22;64929;51.178;4.138;2022-11-20T03:07:40;5.50;78.50
76172;DHT22;64929;51.178;4.138;2022-11-20T03:10:06;5.40;78.50
76172;DHT22;64929;51.178;4.138;2022-11-20T03:12:32;5.50;79.00
76172;DHT22;64929;51.178;4.138;2022-11-20T03:14:58;5.50;78.00
76172;DHT22;64929;51.178;4.138;2022-11-20T03:17:23;5.40;78.30
76172;DHT22;64929;51.178;4.138;2022-11-20T03:19:49;5.50;78.70
76172;DHT22;64929;51.178;4.138;2022-11-20T03:22:15;5.40;79.40
76172;DHT22;64929;51.178;4.138;2022-11-20T03:24:40;5.40;79.00
76172;DHT22;64929;51.178;4.138;2022-11-20T03:27:06;5.40;79.00
76172;DHT22;64929;51.178;4.138;2022-11-20T03:29:31;5.40;79.70
76172;DHT22;64929;51.178;4.138;2022-11-20T03:31:57;5.50;78.90
76172;DHT22;64929;51.178;4.138;2022-11-20T03:34:23;5.40;79.30
76172;DHT22;64929;51.178;4.138;2022-11-20T03:36:49;5.40;80.00
76172;DHT22;64929;51.178;4.138;2022-11-20T03:39:15;5.30;79.80
76172;DHT22;64929;51.178;4.138;2022-11-20T03:41:41;5.30;79.70
76172;DHT22;64929;51.178;4.138;2022-11-20T03:44:09;5.20;80.40
76172;DHT22;64929;51.178;4.138;2022-11-20T03:46:35;5.10;80.90
76172;DHT22;64929;51.178;4.138;2022-11-20T03:49:01;5.10;80.80
76172;DHT22;64929;51.178;4.138;2022-11-20T03:51:34;5.00;81.20
76172;DHT22;64929;51.178;4.138;2022-11-20T03:54:03;5.10;80.90
76172;DHT22;64929;51.178;4.138;2022-11-20T03:56:31;5.20;79.70
76172;DHT22;64929;51.178;4.138;2022-11-20T03:58:57;4.90;81.30
76172;DHT22;64929;51.178;4.138;2022-11-20T04:01:28;5.00;80.40
76172;DHT22;64929;51.178;4.138;2022-11-20T04:03:55;5.10;80.10
76172;DHT22;64929;51.178;4.138;2022-11-20T04:06:30;5.50;79.30
76172;DHT22;64929;51.178;4.138;2022-11-20T04:08:59;5.40;78.40
76172;DHT22;64929;51.178;4.138;2022-11-20T04:11:29;5.20;78.70
76172;DHT22;64929;51.178;4.138;2022-11-20T04:13:56;5.10;79.50
76172;DHT22;64929;51.178;4.138;2022-11-20T04:16:23;5.10;78.90
76172;DHT22;64929;51.178;4.138;2022-11-20T04:18:54;5.10;78.90
76172;DHT22;64929;51.178;4.138;2022-11-20T04:21:20;4.70;79.90
76172;DHT22;64929;51.178;4.138;2022-11-20T04:23:46;4.60;81.00
76172;DHT22;64929;51.178;4.138;2022-11-20T04:26:12;4.50;81.20
76172;DHT22;64929;51.178;4.138;2022-11-20T04:28:38;4.80;80.30
76172;DHT22;64929;51.178;4.138;2022-11-20T04:31:05;4.70;80.00
76172;DHT22;64929;51.178;4.138;2022-11-20T04:33:31;4.50;81.00
76172;DHT22;64929;51.178;4.138;2022-11-20T04:36:01;4.40;81.50
76172;DHT22;64929;51.178;4.138;2022-11-20T04:38:27;4.50;81.50
76172;DHT22;64929;51.178;4.138;2022-11-20T04:40:57;4.40;81.70
76172;DHT22;64929;51.178;4.138;2022-11-20T04:43:23;4.50;82.30
76172;DHT22;64929;51.178;4.138;2022-11-20T04:45:53;4.60;81.90
76172;DHT22;64929;51.178;4.138;2022-11-20T04:48:19;4.60;82.00
76172;DHT22;64929;51.178;4.138;2022-11-20T04:50:45;4.60;82.40
76172;DHT22;64929;51.178;4.138;2022-11-20T04:53:10;4.70;82.30
76172;DHT22;64929;51.178;4.138;2022-11-20T04:55:36;4.80;82.20
76172;DHT22;64929;51.178;4.138;2022-11-20T04:58:01;4.90;82.00
76172;DHT22;64929;51.178;4.138;2022-11-20T05:00:27;4.80;82.30
76172;DHT22;64929;51.178;4.138;2022-11-20T05:02:53;5.00;82.00
76172;DHT22;64929;51.178;4.138;2022-11-20T05:05:18;5.20;81.20
76172;DHT22;64929;51.178;4.138;2022-11-20T05:07:44;5.30;80.90
76172;DHT22;64929;51.178;4.138;2022-11-20T05:10:10;5.00;81.90
76172;DHT22;64929;51.178;4.138;2022-11-20T05:12:35;5.00;82.60
76172;DHT22;64929;51.178;4.138;2022-11-20T05:15:01;5.10;83.10
76172;DHT22;64929;51.178;4.138;2022-11-20T05:17:26;5.30;82.10
76172;DHT22;64929;51.178;4.138;2022-11-20T05:19:52;5.40;81.50
76172;DHT22;64929;51.178;4.138;2022-11-20T05:22:18;5.70;81.00
76172;DHT22;64929;51.178;4.138;2022-11-20T05:24:43;5.70;80.60
76172;DHT22;64929;51.178;4.138;2022-11-20T05:27:09;5.80;79.50
76172;DHT22;64929;51.178;4.138;2022-11-20T05:29:35;5.60;80.30
76172;DHT22;64929;51.178;4.138;2022-11-20T05:32:00;5.40;80.80
76172;DHT22;64929;51.178;4.138;2022-11-20T05:34:26;5.60;80.40
76172;DHT22;64929;51.178;4.138;2022-11-20T05:36:51;5.60;79.30
76172;DHT22;64929;51.178;4.138;2022-11-20T05:39:17;5.60;80.00
76172;DHT22;64929;51.178;4.138;2022-11-20T05:41:43;5.60;80.40
76172;DHT22;64929;51.178;4.138;2022-11-20T05:44:12;5.60;79.90
76172;DHT22;64929;51.178;4.138;2022-11-20T05:46:37;5.70;79.70
76172;DHT22;64929;51.178;4.138;2022-11-20T05:49:03;5.60;80.20
76172;DHT22;64929;51.178;4.138;2022-11-20T05:51:29;5.60;79.40
76172;DHT22;64929;51.178;4.138;2022-11-20T05:53:57;5.60;80.20
76172;DHT22;64929;51.178;4.138;2022-11-20T05:56:23;5.60;79.80
76172;DHT22;64929;51.178;4.138;2022-11-20T05:58:49;5.70;79.40
76172;DHT22;64929;51.178;4.138;2022-11-20T06:01:21;5.50;80.60
76172;DHT22;64929;51.178;4.138;2022-11-20T06:03:48;5.40;81.20
76172;DHT22;64929;51.178;4.138;2022-11-20T06:06:16;5.50;81.00
76172;DHT22;64929;51.178;4.138;2022-11-20T06:08:43;5.50;81.40
76172;DHT22;64929;51.178;4.138;2022-11-20T06:11:10;5.50;80.80
76172;DHT22;64929;51.178;4.138;2022-11-20T06:13:37;5.60;80.80
76172;DHT22;64929;51.178;4.138;2022-11-20T06:16:03;5.70;80.40
76172;DHT22;64929;51.178;4.138;2022-11-20T06:18:29;5.70;79.90
76172;DHT22;64929;51.178;4.138;2022-11-20T06:21:13;5.70;80.20
76172;DHT22;64929;51.178;4.138;2022-11-20T06:23:39;5.50;80.20
76172;DHT22;64929;51.178;4.138;2022-11-20T06:26:10;5.20;81.00
76172;DHT22;64929;51.178;4.138;2022-11-20T06:28:36;5.30;82.10
76172;DHT22;64929;51.178;4.138;2022-11-20T06:31:04;5.50;81.80
76172;DHT22;64929;51.178;4.138;2022-11-20T06:33:29;5.70;80.00
76172;DHT22;64929;51.178;4.138;2022-11-20T06:35:59;5.60;80.50
76172;DHT22;64929;51.178;4.138;2022-11-20T06:38:26;5.50;81.00
76172;DHT22;64929;51.178;4.138;2022-11-20T06:40:52;5.40;81.70
76172;DHT22;64929;51.178;4.138;2022-11-20T06:43:18;5.50;81.80
76172;DHT22;64929;51.178;4.138;2022-11-20T06:45:44;5.60;80.90
76172;DHT22;64929;51.178;4.138;2022-11-20T06:48:10;5.60;80.90
76172;DHT22;64929;51.178;4.138;2022-11-20T06:50:38;5.50;81.50
76172;DHT22;64929;51.178;4.138;2022-11-20T06:53:05;5.50;81.90
76172;DHT22;64929;51.178;4.138;2022-11-20T06:55:31;5.50;82.50
76172;DHT22;64929;51.178;4.138;2022-11-20T06:57:57;5.40;83.20
76172;DHT22;64929;51.178;4.138;2022-11-20T07:00:23;5.40;82.90
76172;DHT22;64929;51.178;4.138;2022-11-20T07:02:49;5.30;83.40
76172;DHT22;64929;51.178;4.138;2022-11-20T07:05:15;5.60;83.20
76172;DHT22;64929;51.178;4.138;2022-11-20T07:07:41;5.60;83.10
76172;DHT22;64929;51.178;4.138;2022-11-20T07:10:07;5.70;83.00
76172;DHT22;64929;51.178;4.138;2022-11-20T07:12:32;5.60;82.60
76172;DHT22;64929;51.178;4.138;2022-11-20T07:14:58;5.60;83.10
76172;DHT22;64929;51.178;4.138;2022-11-20T07:17:24;5.70;83.30
76172;DHT22;64929;51.178;4.138;2022-11-20T07:19:49;5.70;83.40
76172;DHT22;64929;51.178;4.138;2022-11-20T07:22:15;5.60;83.80
76172;DHT22;64929;51.178;4.138;2022-11-20T07:24:40;5.70;83.60
76172;DHT22;64929;51.178;4.138;2022-11-20T07:27:06;5.60;84.20
76172;DHT22;64929;51.178;4.138;2022-11-20T07:29:32;5.70;84.10
76172;DHT22;64929;51.178;4.138;2022-11-20T07:31:57;5.60;84.00
76172;DHT22;64929;51.178;4.138;2022-11-20T07:34:23;5.70;84.50
76172;DHT22;64929;51.178;4.138;2022-11-20T07:36:49;5.80;83.90
76172;DHT22;64929;51.178;4.138;2022-11-20T07:39:15;5.90;83.40
76172;DHT22;64929;51.178;4.138;2022-11-20T07:41:40;5.90;83.70
76172;DHT22;64929;51.178;4.138;2022-11-20T07:44:06;5.80;84.30
76172;DHT22;64929;51.178;4.138;2022-11-20T07:46:31;5.80;84.20
76172;DHT22;64929;51.178;4.138;2022-11-20T07:48:57;5.70;84.60
76172;DHT22;64929;51.178;4.138;2022-11-20T07:51:23;5.80;84.90
76172;DHT22;64929;51.178;4.138;2022-11-20T07:53:51;5.90;84.30
76172;DHT22;64929;51.178;4.138;2022-11-20T07:56:17;5.90;84.30
76172;DHT22;64929;51.178;4.138;2022-11-20T07:58:43;5.90;84.60
76172;DHT22;64929;51.178;4.138;2022-11-20T08:01:08;6.00;84.60
76172;DHT22;64929;51.178;4.138;2022-11-20T08:03:35;6.10;84.00
76172;DHT22;64929;51.178;4.138;2022-11-20T08:06:03;6.40;82.90
76172;DHT22;64929;51.178;4.138;2022-11-20T08:08:29;6.30;82.20
76172;DHT22;64929;51.178;4.138;2022-11-20T08:10:57;6.40;82.80
76172;DHT22;64929;51.178;4.138;2022-11-20T08:13:43;6.40;82.60
76172;DHT22;64929;51.178;4.138;2022-11-20T08:16:27;6.40;81.90
76172;DHT22;64929;51.178;4.138;2022-11-20T08:18:53;6.30;82.50
76172;DHT22;64929;51.178;4.138;2022-11-20T08:21:19;6.30;82.40
76172;DHT22;64929;51.178;4.138;2022-11-20T08:23:45;6.30;82.60
76172;DHT22;64929;51.178;4.138;2022-11-20T08:26:10;6.20;83.30
76172;DHT22;64929;51.178;4.138;2022-11-20T08:28:36;6.20;83.30
76172;DHT22;64929;51.178;4.138;2022-11-20T08:31:03;6.30;83.10
76172;DHT22;64929;51.178;4.138;2022-11-20T08:33:29;6.40;82.80
76172;DHT22;64929;51.178;4.138;2022-11-20T08:35:59;6.40;83.00
76172;DHT22;64929;51.178;4.138;2022-11-20T08:38:28;6.50;83.00
76172;DHT22;64929;51.178;4.138;2022-11-20T08:40:58;6.60;82.30
76172;DHT22;64929;51.178;4.138;2022-11-20T08:43:42;6.70;82.20
76172;DHT22;64929;51.178;4.138;2022-11-20T08:46:08;6.70;81.80
76172;DHT22;64929;51.178;4.138;2022-11-20T08:48:33;6.60;82.30
76172;DHT22;64929;51.178;4.138;2022-11-20T08:50:59;6.60;82.50
76172;DHT22;64929;51.178;4.138;2022-11-20T08:53:25;6.50;83.10
76172;DHT22;64929;51.178;4.138;2022-11-20T08:55:51;6.60;83.30
76172;DHT22;64929;51.178;4.138;2022-11-20T08:58:17;6.60;83.20
76172;DHT22;64929;51.178;4.138;2022-11-20T09:00:43;6.60;83.40
76172;DHT22;64929;51.178;4.138;2022-11-20T09:03:09;6.60;83.40
76172;DHT22;64929;51.178;4.138;2022-11-20T09:05:34;6.70;83.20
76172;DHT22;64929;51.178;4.138;2022-11-20T09:08:02;6.80;83.00
76172;DHT22;64929;51.178;4.138;2022-11-20T09:10:28;6.60;83.40
76172;DHT22;64929;51.178;4.138;2022-11-20T09:12:54;6.60;84.40
76172;DHT22;64929;51.178;4.138;2022-11-20T09:15:21;6.60;83.90
76172;DHT22;64929;51.178;4.138;2022-11-20T09:17:57;6.80;83.80
76172;DHT22;64929;51.178;4.138;2022-11-20T09:20:24;6.90;83.30
76172;DHT22;64929;51.178;4.138;2022-11-20T09:22:50;6.90;83.30
76172;DHT22;64929;51.178;4.138;2022-11-20T09:25:16;6.80;84.20
76172;DHT22;64929;51.178;4.138;2022-11-20T09:27:41;6.60;85.00
76172;DHT22;64929;51.178;4.138;2022-11-20T09:30:09;6.60;85.40
76172;DHT22;64929;51.178;4.138;2022-11-20T09:32:35;6.60;85.90
76172;DHT22;64929;51.178;4.138;2022-11-20T09:35:01;6.60;86.00
76172;DHT22;64929;51.178;4.138;2022-11-20T09:37:27;6.50;86.50
76172;DHT22;64929;51.178;4.138;2022-11-20T09:39:53;6.50;87.00
76172;DHT22;64929;51.178;4.138;2022-11-20T09:45:21;6.60;86.50
76172;DHT22;64929;51.178;4.138;2022-11-20T09:50:36;6.60;87.10
76172;DHT22;64929;51.178;4.138;2022-11-20T09:55:47;6.80;87.00
76172;DHT22;64929;51.178;4.138;2022-11-20T09:58:35;6.80;86.70
76172;DHT22;64929;51.178;4.138;2022-11-20T10:03:45;6.80;87.50
76172;DHT22;64929;51.178;4.138;2022-11-20T10:06:17;6.90;87.00
76172;DHT22;64929;51.178;4.138;2022-11-20T10:08:58;6.80;87.00
76172;DHT22;64929;51.178;4.138;2022-11-20T10:14:18;6.80;87.50
76172;DHT22;64929;51.178;4.138;2022-11-20T10:16:57;6.80;88.50
76172;DHT22;64929;51.178;4.138;2022-11-20T10:25:41;7.00;88.10
76172;DHT22;64929;51.178;4.138;2022-11-20T10:31:07;7.20;87.70
76172;DHT22;64929;51.178;4.138;2022-11-20T10:33:42;7.20;87.50
76172;DHT22;64929;51.178;4.138;2022-11-20T10:36:16;7.30;86.90
76172;DHT22;64929;51.178;4.138;2022-11-20T10:39:12;7.20;87.50
76172;DHT22;64929;51.178;4.138;2022-11-20T10:41:42;7.30;87.90
76172;DHT22;64929;51.178;4.138;2022-11-20T10:47:04;7.40;87.60
76172;DHT22;64929;51.178;4.138;2022-11-20T10:49:31;7.40;87.50
76172;DHT22;64929;51.178;4.138;2022-11-20T10:52:23;7.50;87.20
76172;DHT22;64929;51.178;4.138;2022-11-20T10:57:52;7.70;86.60
76172;DHT22;64929;51.178;4.138;2022-11-20T11:00:23;7.70;86.60
76172;DHT22;64929;51.178;4.138;2022-11-20T11:02:51;7.70;87.00
76172;DHT22;64929;51.178;4.138;2022-11-20T11:07:48;7.70;86.60
76172;DHT22;64929;51.178;4.138;2022-11-20T11:10:23;7.80;86.90
76172;DHT22;64929;51.178;4.138;2022-11-20T11:12:49;7.70;87.20
76172;DHT22;64929;51.178;4.138;2022-11-20T11:17:54;7.90;87.10
76172;DHT22;64929;51.178;4.138;2022-11-20T11:20:25;7.90;87.00
76172;DHT22;64929;51.178;4.138;2022-11-20T11:22:52;7.90;87.50
76172;DHT22;64929;51.178;4.138;2022-11-20T11:25:31;8.00;87.80
76172;DHT22;64929;51.178;4.138;2022-11-20T11:28:04;7.90;87.40
76172;DHT22;64929;51.178;4.138;2022-11-20T11:30:41;8.10;87.70
76172;DHT22;64929;51.178;4.138;2022-11-20T11:33:11;8.10;87.30
76172;DHT22;64929;51.178;4.138;2022-11-20T11:36:04;8.20;86.60
76172;DHT22;64929;51.178;4.138;2022-11-20T11:38:41;8.40;86.40
76172;DHT22;64929;51.178;4.138;2022-11-20T11:41:16;8.60;85.70
76172;DHT22;64929;51.178;4.138;2022-11-20T11:43:55;8.60;85.70
76172;DHT22;64929;51.178;4.138;2022-11-20T11:46:44;8.70;85.60
76172;DHT22;64929;51.178;4.138;2022-11-20T11:49:17;8.90;84.70
76172;DHT22;64929;51.178;4.138;2022-11-20T11:51:58;9.00;85.30
76172;DHT22;64929;51.178;4.138;2022-11-20T11:54:38;8.90;84.70
76172;DHT22;64929;51.178;4.138;2022-11-20T11:57:32;9.00;84.90
76172;DHT22;64929;51.178;4.138;2022-11-20T12:00:06;8.90;84.20
76172;DHT22;64929;51.178;4.138;2022-11-20T12:02:38;8.70;84.00
76172;DHT22;64929;51.178;4.138;2022-11-20T12:05:42;8.70;84.30
76172;DHT22;64929;51.178;4.138;2022-11-20T12:10:55;8.70;84.60
76172;DHT22;64929;51.178;4.138;2022-11-20T12:16:02;8.50;84.60
76172;DHT22;64929;51.178;4.138;2022-11-20T12:18:32;8.60;85.30
76172;DHT22;64929;51.178;4.138;2022-11-20T12:26:43;8.40;86.00
76172;DHT22;64929;51.178;4.138;2022-11-20T12:29:29;8.30;86.30
76172;DHT22;64929;51.178;4.138;2022-11-20T12:40:06;8.10;87.50
76172;DHT22;64929;51.178;4.138;2022-11-20T13:05:19;8.10;89.80
76172;DHT22;64929;51.178;4.138;2022-11-20T13:07:47;8.00;90.00
76172;DHT22;64929;51.178;4.138;2022-11-20T13:10:52;8.10;90.00
76172;DHT22;64929;51.178;4.138;2022-11-20T13:16:32;8.10;90.30
76172;DHT22;64929;51.178;4.138;2022-11-20T13:19:03;8.20;90.30
76172;DHT22;64929;51.178;4.138;2022-11-20T13:21:42;8.20;89.90
76172;DHT22;64929;51.178;4.138;2022-11-20T13:24:30;8.30;89.60
76172;DHT22;64929;51.178;4.138;2022-11-20T13:29:29;8.20;90.30
76172;DHT22;64929;51.178;4.138;2022-11-20T13:32:13;8.10;90.40
76172;DHT22;64929;51.178;4.138;2022-11-20T13:34:50;8.10;90.60
76172;DHT22;64929;51.178;4.138;2022-11-20T13:37:32;8.00;90.70
76172;DHT22;64929;51.178;4.138;2022-11-20T13:45:27;8.10;90.80
76172;DHT22;64929;51.178;4.138;2022-11-20T13:47:54;8.10;90.70
76172;DHT22;64929;51.178;4.138;2022-11-20T13:53:23;7.90;90.90
76172;DHT22;64929;51.178;4.138;2022-11-20T13:56:18;8.00;90.90
76172;DHT22;64929;51.178;4.138;2022-11-20T13:58:53;8.10;91.00
76172;DHT22;64929;51.178;4.138;2022-11-20T14:01:28;8.20;90.80
76172;DHT22;64929;51.178;4.138;2022-11-20T14:03:55;8.20;90.50
76172;DHT22;64929;51.178;4.138;2022-11-20T14:06:30;8.20;90.70
76172;DHT22;64929;51.178;4.138;2022-11-20T14:08:58;8.20;90.90
76172;DHT22;64929;51.178;4.138;2022-11-20T14:11:26;8.20;90.80
76172;DHT22;64929;51.178;4.138;2022-11-20T14:16:23;8.30;90.80
76172;DHT22;64929;51.178;4.138;2022-11-20T14:18:50;8.30;90.60
76172;DHT22;64929;51.178;4.138;2022-11-20T14:21:29;8.40;90.60
76172;DHT22;64929;51.178;4.138;2022-11-20T14:24:11;8.40;90.50
76172;DHT22;64929;51.178;4.138;2022-11-20T14:26:40;8.40;90.60
76172;DHT22;64929;51.178;4.138;2022-11-20T14:29:19;8.30;90.70
76172;DHT22;64929;51.178;4.138;2022-11-20T14:31:46;8.40;90.60
76172;DHT22;64929;51.178;4.138;2022-11-20T14:34:19;8.40;90.60
76172;DHT22;64929;51.178;4.138;2022-11-20T14:36:45;8.50;90.60
76172;DHT22;64929;51.178;4.138;2022-11-20T14:39:19;8.40;90.40
76172;DHT22;64929;51.178;4.138;2022-11-20T14:41:52;8.50;90.60
76172;DHT22;64929;51.178;4.138;2022-11-20T14:44:23;8.50;90.40
76172;DHT22;64929;51.178;4.138;2022-11-20T14:46:51;8.50;90.60
76172;DHT22;64929;51.178;4.138;2022-11-20T14:49:18;8.70;90.40
76172;DHT22;64929;51.178;4.138;2022-11-20T14:51:43;8.70;90.40
76172;DHT22;64929;51.178;4.138;2022-11-20T14:54:15;8.70;90.50
76172;DHT22;64929;51.178;4.138;2022-11-20T14:56:41;8.80;90.20
76172;DHT22;64929;51.178;4.138;2022-11-20T14:59:08;8.90;90.20
76172;DHT22;64929;51.178;4.138;2022-11-20T15:01:34;8.80;90.00
76172;DHT22;64929;51.178;4.138;2022-11-20T15:04:09;8.90;90.00
76172;DHT22;64929;51.178;4.138;2022-11-20T15:06:36;8.90;90.10
76172;DHT22;64929;51.178;4.138;2022-11-20T15:09:04;9.10;89.70
76172;DHT22;64929;51.178;4.138;2022-11-20T15:11:35;9.00;89.60
76172;DHT22;64929;51.178;4.138;2022-11-20T15:14:06;9.10;89.30
76172;DHT22;64929;51.178;4.138;2022-11-20T15:16:32;9.20;89.20
76172;DHT22;64929;51.178;4.138;2022-11-20T15:18:58;9.20;89.00
76172;DHT22;64929;51.178;4.138;2022-11-20T15:21:24;9.20;88.90
76172;DHT22;64929;51.178;4.138;2022-11-20T15:23:50;9.30;88.70
76172;DHT22;64929;51.178;4.138;2022-11-20T15:26:22;9.50;88.10
76172;DHT22;64929;51.178;4.138;2022-11-20T15:28:49;9.40;87.90
76172;DHT22;64929;51.178;4.138;2022-11-20T15:31:21;9.30;88.40
76172;DHT22;64929;51.178;4.138;2022-11-20T15:33:48;9.30;88.90
76172;DHT22;64929;51.178;4.138;2022-11-20T15:36:14;9.40;88.80
76172;DHT22;64929;51.178;4.138;2022-11-20T15:38:40;9.40;88.80
76172;DHT22;64929;51.178;4.138;2022-11-20T15:41:06;9.40;88.30
76172;DHT22;64929;51.178;4.138;2022-11-20T15:43:32;9.50;88.30
76172;DHT22;64929;51.178;4.138;2022-11-20T15:46:03;9.40;88.30
76172;DHT22;64929;51.178;4.138;2022-11-20T15:48:33;9.40;88.60
76172;DHT22;64929;51.178;4.138;2022-11-20T15:51:10;9.50;88.40
76172;DHT22;64929;51.178;4.138;2022-11-20T15:53:41;9.50;88.00
76172;DHT22;64929;51.178;4.138;2022-11-20T15:56:11;9.60;87.30
76172;DHT22;64929;51.178;4.138;2022-11-20T15:58:38;9.70;86.60
76172;DHT22;64929;51.178;4.138;2022-11-20T16:01:03;9.70;86.00
76172;DHT22;64929;51.178;4.138;2022-11-20T16:03:29;9.80;85.60
76172;DHT22;64929;51.178;4.138;2022-11-20T16:05:55;9.60;85.70
76172;DHT22;64929;51.178;4.138;2022-11-20T16:08:21;9.70;85.30
76172;DHT22;64929;51.178;4.138;2022-11-20T16:10:46;9.70;85.20
76172;DHT22;64929;51.178;4.138;2022-11-20T16:13:17;9.60;85.00
76172;DHT22;64929;51.178;4.138;2022-11-20T16:16:04;9.60;84.10
76172;DHT22;64929;51.178;4.138;2022-11-20T16:18:30;9.60;84.70
76172;DHT22;64929;51.178;4.138;2022-11-20T16:20:56;9.60;84.30
76172;DHT22;64929;51.178;4.138;2022-11-20T16:23:22;9.60;84.20
76172;DHT22;64929;51.178;4.138;2022-11-20T16:25:49;9.50;82.70
76172;DHT22;64929;51.178;4.138;2022-11-20T16:28:16;9.60;83.60
76172;DHT22;64929;51.178;4.138;2022-11-20T16:30:41;9.60;82.50
76172;DHT22;64929;51.178;4.138;2022-11-20T16:33:12;9.50;83.00
76172;DHT22;64929;51.178;4.138;2022-11-20T16:35:38;9.60;83.30
76172;DHT22;64929;51.178;4.138;2022-11-20T16:38:04;9.70;82.10
76172;DHT22;64929;51.178;4.138;2022-11-20T16:40:29;9.70;81.60
76172;DHT22;64929;51.178;4.138;2022-11-20T16:42:55;9.60;81.40
76172;DHT22;64929;51.178;4.138;2022-11-20T16:45:22;9.60;81.20
76172;DHT22;64929;51.178;4.138;2022-11-20T16:47:48;9.50;82.00
76172;DHT22;64929;51.178;4.138;2022-11-20T16:50:14;9.40;82.30
76172;DHT22;64929;51.178;4.138;2022-11-20T16:52:39;9.40;82.30
76172;DHT22;64929;51.178;4.138;2022-11-20T16:55:05;9.40;81.70
76172;DHT22;64929;51.178;4.138;2022-11-20T16:57:31;9.60;80.40
76172;DHT22;64929;51.178;4.138;2022-11-20T17:00:00;9.60;80.70
76172;DHT22;64929;51.178;4.138;2022-11-20T17:02:27;9.60;81.10
76172;DHT22;64929;51.178;4.138;2022-11-20T17:04:52;9.60;81.30
76172;DHT22;64929;51.178;4.138;2022-11-20T17:07:18;9.40;82.00
76172;DHT22;64929;51.178;4.138;2022-11-20T17:09:44;9.50;82.00
76172;DHT22;64929;51.178;4.138;2022-11-20T17:12:10;9.50;81.90
76172;DHT22;64929;51.178;4.138;2022-11-20T17:14:35;9.40;83.30
76172;DHT22;64929;51.178;4.138;2022-11-20T17:17:02;9.40;82.80
76172;DHT22;64929;51.178;4.138;2022-11-20T17:19:27;9.40;83.10
76172;DHT22;64929;51.178;4.138;2022-11-20T17:21:53;9.40;82.10
76172;DHT22;64929;51.178;4.138;2022-11-20T17:24:19;9.40;82.40
76172;DHT22;64929;51.178;4.138;2022-11-20T17:26:44;9.40;81.80
76172;DHT22;64929;51.178;4.138;2022-11-20T17:29:13;9.40;81.40
76172;DHT22;64929;51.178;4.138;2022-11-20T17:31:40;9.40;82.10